Mablethorpe, United Kingdom
Current Conditions -  °F | °C
As of 3:50 PM on Thursday 29 Jan 2015 (Local Time) from EGXS Reporting Station
Scattered Clouds Scattered Clouds  
Wind Chill: 21°   Ceiling: Unl
Heat Index: 32°   Visibility: 0.18mi
Dew Point: 30°   Wind: 17mph
Humidity: 93%   Direction: 260°W
Pressure: 28.76"   Gusts: NA
Location:  53.34°N, 0.24°E
Report Text: EGXS 291550Z AUTO 26015KT 0300 // SCT002/// 00/M01 Q0974
Loading
Personal Weather Stations






























Interactive Weather Map New forecast layout! Learn more

10-Day Weather Forecast

Advertisements
Track Severe Weather on mobile